sensor_id;sensor_type;location;lat;lon;timestamp;temperature;humidity
49489;SHT31;35382;51.484;11.476;2023-07-31T00:00:11;15.75;78.23
49489;SHT31;35382;51.484;11.476;2023-07-31T00:02:37;15.69;78.06
49489;SHT31;35382;51.484;11.476;2023-07-31T00:05:02;15.75;77.66
49489;SHT31;35382;51.484;11.476;2023-07-31T00:07:28;15.70;77.84
49489;SHT31;35382;51.484;11.476;2023-07-31T00:09:53;15.69;78.01
49489;SHT31;35382;51.484;11.476;2023-07-31T00:12:19;15.65;78.00
49489;SHT31;35382;51.484;11.476;2023-07-31T00:14:45;15.62;78.13
49489;SHT31;35382;51.484;11.476;2023-07-31T00:17:10;15.52;78.50
49489;SHT31;35382;51.484;11.476;2023-07-31T00:19:36;15.65;77.89
49489;SHT31;35382;51.484;11.476;2023-07-31T00:22:01;15.61;78.03
49489;SHT31;35382;51.484;11.476;2023-07-31T00:24:27;15.75;77.79
49489;SHT31;35382;51.484;11.476;2023-07-31T00:26:52;15.56;78.47
49489;SHT31;35382;51.484;11.476;2023-07-31T00:29:18;15.66;77.81
49489;SHT31;35382;51.484;11.476;2023-07-31T00:31:44;15.73;77.47
49489;SHT31;35382;51.484;11.476;2023-07-31T00:34:09;15.69;78.19
49489;SHT31;35382;51.484;11.476;2023-07-31T00:36:34;15.70;77.77
49489;SHT31;35382;51.484;11.476;2023-07-31T00:39:00;15.62;78.49
49489;SHT31;35382;51.484;11.476;2023-07-31T00:41:25;15.63;78.50
49489;SHT31;35382;51.484;11.476;2023-07-31T00:43:51;15.59;78.52
49489;SHT31;35382;51.484;11.476;2023-07-31T00:46:16;15.62;78.32
49489;SHT31;35382;51.484;11.476;2023-07-31T00:48:42;15.53;78.55
49489;SHT31;35382;51.484;11.476;2023-07-31T00:51:08;15.70;77.41
49489;SHT31;35382;51.484;11.476;2023-07-31T00:53:34;15.75;77.55
49489;SHT31;35382;51.484;11.476;2023-07-31T00:55:59;15.72;77.72
49489;SHT31;35382;51.484;11.476;2023-07-31T00:58:25;15.82;77.28
49489;SHT31;35382;51.484;11.476;2023-07-31T01:00:51;15.87;77.88
49489;SHT31;35382;51.484;11.476;2023-07-31T01:03:17;15.93;77.83
49489;SHT31;35382;51.484;11.476;2023-07-31T01:11:14;15.87;79.61
49489;SHT31;35382;51.484;11.476;2023-07-31T01:13:40;15.95;79.50
49489;SHT31;35382;51.484;11.476;2023-07-31T01:16:06;15.82;80.07
49489;SHT31;35382;51.484;11.476;2023-07-31T01:18:31;15.86;80.25
49489;SHT31;35382;51.484;11.476;2023-07-31T01:21:55;15.99;79.47
49489;SHT31;35382;51.484;11.476;2023-07-31T01:26:34;15.97;80.56
49489;SHT31;35382;51.484;11.476;2023-07-31T01:31:48;15.70;82.96
49489;SHT31;35382;51.484;11.476;2023-07-31T01:34:17;15.61;83.51
49489;SHT31;35382;51.484;11.476;2023-07-31T01:36:43;15.51;84.68
49489;SHT31;35382;51.484;11.476;2023-07-31T01:39:09;15.32;85.62
49489;SHT31;35382;51.484;11.476;2023-07-31T01:41:34;15.36;85.80
49489;SHT31;35382;51.484;11.476;2023-07-31T01:44:00;15.18;87.40
49489;SHT31;35382;51.484;11.476;2023-07-31T01:46:25;15.07;87.94
49489;SHT31;35382;51.484;11.476;2023-07-31T01:48:51;15.04;88.47
49489;SHT31;35382;51.484;11.476;2023-07-31T01:51:16;15.01;89.12
49489;SHT31;35382;51.484;11.476;2023-07-31T01:53:41;14.98;89.38
49489;SHT31;35382;51.484;11.476;2023-07-31T01:56:07;14.91;90.11
49489;SHT31;35382;51.484;11.476;2023-07-31T01:58:33;15.05;89.21
49489;SHT31;35382;51.484;11.476;2023-07-31T02:00:58;14.99;89.69
49489;SHT31;35382;51.484;11.476;2023-07-31T02:03:24;15.04;89.30
49489;SHT31;35382;51.484;11.476;2023-07-31T02:05:53;15.04;89.34
49489;SHT31;35382;51.484;11.476;2023-07-31T02:08:19;15.08;89.09
49489;SHT31;35382;51.484;11.476;2023-07-31T02:10:45;15.14;88.98
49489;SHT31;35382;51.484;11.476;2023-07-31T02:13:10;15.18;89.05
49489;SHT31;35382;51.484;11.476;2023-07-31T02:15:36;15.11;89.24
49489;SHT31;35382;51.484;11.476;2023-07-31T02:18:01;15.17;89.19
49489;SHT31;35382;51.484;11.476;2023-07-31T02:20:27;15.21;88.77
49489;SHT31;35382;51.484;11.476;2023-07-31T02:22:52;15.15;89.22
49489;SHT31;35382;51.484;11.476;2023-07-31T02:25:18;15.14;89.41
49489;SHT31;35382;51.484;11.476;2023-07-31T02:27:44;15.32;88.96
49489;SHT31;35382;51.484;11.476;2023-07-31T02:30:10;15.24;89.08
49489;SHT31;35382;51.484;11.476;2023-07-31T02:32:36;15.15;89.34
49489;SHT31;35382;51.484;11.476;2023-07-31T02:35:01;15.19;88.93
49489;SHT31;35382;51.484;11.476;2023-07-31T02:37:27;15.18;89.24
49489;SHT31;35382;51.484;11.476;2023-07-31T02:39:53;15.19;89.30
49489;SHT31;35382;51.484;11.476;2023-07-31T02:42:18;15.17;89.40
49489;SHT31;35382;51.484;11.476;2023-07-31T02:44:44;15.24;89.05
49489;SHT31;35382;51.484;11.476;2023-07-31T02:47:10;15.25;89.23
49489;SHT31;35382;51.484;11.476;2023-07-31T02:49:35;15.36;88.91
49489;SHT31;35382;51.484;11.476;2023-07-31T02:52:01;15.38;88.67
49489;SHT31;35382;51.484;11.476;2023-07-31T02:54:26;15.28;89.12
49489;SHT31;35382;51.484;11.476;2023-07-31T02:56:54;15.36;88.53
49489;SHT31;35382;51.484;11.476;2023-07-31T02:59:21;15.45;88.31
49489;SHT31;35382;51.484;11.476;2023-07-31T03:01:46;15.32;88.59
49489;SHT31;35382;51.484;11.476;2023-07-31T03:04:11;15.27;88.99
49489;SHT31;35382;51.484;11.476;2023-07-31T03:06:37;15.15;89.75
49489;SHT31;35382;51.484;11.476;2023-07-31T03:09:02;15.34;88.65
49489;SHT31;35382;51.484;11.476;2023-07-31T03:11:28;15.34;88.87
49489;SHT31;35382;51.484;11.476;2023-07-31T03:13:53;15.25;88.98
49489;SHT31;35382;51.484;11.476;2023-07-31T03:16:19;15.25;88.76
49489;SHT31;35382;51.484;11.476;2023-07-31T03:18:44;15.09;89.12
49489;SHT31;35382;51.484;11.476;2023-07-31T03:21:09;15.09;88.87
49489;SHT31;35382;51.484;11.476;2023-07-31T03:23:35;15.11;88.66
49489;SHT31;35382;51.484;11.476;2023-07-31T03:26:02;14.99;89.75
49489;SHT31;35382;51.484;11.476;2023-07-31T03:28:28;15.07;88.93
49489;SHT31;35382;51.484;11.476;2023-07-31T03:30:54;14.98;89.31
49489;SHT31;35382;51.484;11.476;2023-07-31T03:33:19;14.98;89.15
49489;SHT31;35382;51.484;11.476;2023-07-31T03:35:45;14.92;89.09
49489;SHT31;35382;51.484;11.476;2023-07-31T03:38:11;14.95;88.98
49489;SHT31;35382;51.484;11.476;2023-07-31T03:40:37;15.01;88.33
49489;SHT31;35382;51.484;11.476;2023-07-31T03:43:02;14.99;88.42
49489;SHT31;35382;51.484;11.476;2023-07-31T03:45:30;14.95;89.29
49489;SHT31;35382;51.484;11.476;2023-07-31T03:47:57;14.96;88.62
49489;SHT31;35382;51.484;11.476;2023-07-31T03:50:24;14.92;89.06
49489;SHT31;35382;51.484;11.476;2023-07-31T03:52:50;14.95;88.56
49489;SHT31;35382;51.484;11.476;2023-07-31T03:55:15;14.95;88.57
49489;SHT31;35382;51.484;11.476;2023-07-31T03:57:41;15.01;88.45
49489;SHT31;35382;51.484;11.476;2023-07-31T04:00:07;14.98;88.75
49489;SHT31;35382;51.484;11.476;2023-07-31T04:02:40;15.14;88.10
49489;SHT31;35382;51.484;11.476;2023-07-31T04:05:06;15.11;88.48
49489;SHT31;35382;51.484;11.476;2023-07-31T04:07:32;15.04;88.76
49489;SHT31;35382;51.484;11.476;2023-07-31T04:09:58;15.09;88.25
49489;SHT31;35382;51.484;11.476;2023-07-31T04:12:23;15.21;88.36
49489;SHT31;35382;51.484;11.476;2023-07-31T04:14:49;15.15;88.55
49489;SHT31;35382;51.484;11.476;2023-07-31T04:17:14;15.07;89.18
49489;SHT31;35382;51.484;11.476;2023-07-31T04:19:40;14.98;90.05
49489;SHT31;35382;51.484;11.476;2023-07-31T04:22:05;14.94;90.46
49489;SHT31;35382;51.484;11.476;2023-07-31T04:24:31;14.87;90.74
49489;SHT31;35382;51.484;11.476;2023-07-31T04:26:56;14.98;89.95
49489;SHT31;35382;51.484;11.476;2023-07-31T04:29:21;15.07;89.55
49489;SHT31;35382;51.484;11.476;2023-07-31T04:31:47;15.08;89.31
49489;SHT31;35382;51.484;11.476;2023-07-31T04:34:15;15.04;89.93
49489;SHT31;35382;51.484;11.476;2023-07-31T04:36:42;14.95;90.08
49489;SHT31;35382;51.484;11.476;2023-07-31T04:39:08;14.88;91.04
49489;SHT31;35382;51.484;11.476;2023-07-31T04:41:33;14.87;91.07
49489;SHT31;35382;51.484;11.476;2023-07-31T04:43:59;14.95;90.82
49489;SHT31;35382;51.484;11.476;2023-07-31T04:46:24;14.95;90.91
49489;SHT31;35382;51.484;11.476;2023-07-31T04:48:49;14.96;91.10
49489;SHT31;35382;51.484;11.476;2023-07-31T04:51:15;14.94;91.33
49489;SHT31;35382;51.484;11.476;2023-07-31T04:53:40;14.92;91.60
49489;SHT31;35382;51.484;11.476;2023-07-31T04:56:06;14.94;91.59
49489;SHT31;35382;51.484;11.476;2023-07-31T04:58:31;14.95;91.56
49489;SHT31;35382;51.484;11.476;2023-07-31T05:00:56;14.98;91.46
49489;SHT31;35382;51.484;11.476;2023-07-31T05:03:22;14.87;91.98
49489;SHT31;35382;51.484;11.476;2023-07-31T05:05:49;14.91;92.03
49489;SHT31;35382;51.484;11.476;2023-07-31T05:08:15;15.04;91.48
49489;SHT31;35382;51.484;11.476;2023-07-31T05:10:40;15.11;91.37
49489;SHT31;35382;51.484;11.476;2023-07-31T05:13:06;15.08;91.96
49489;SHT31;35382;51.484;11.476;2023-07-31T05:15:31;15.08;91.57
49489;SHT31;35382;51.484;11.476;2023-07-31T05:17:57;15.02;91.88
49489;SHT31;35382;51.484;11.476;2023-07-31T05:20:22;15.07;92.24
49489;SHT31;35382;51.484;11.476;2023-07-31T05:22:48;15.15;92.14
49489;SHT31;35382;51.484;11.476;2023-07-31T05:25:13;15.27;91.64
49489;SHT31;35382;51.484;11.476;2023-07-31T05:27:39;15.42;90.35
49489;SHT31;35382;51.484;11.476;2023-07-31T05:30:05;15.55;90.33
49489;SHT31;35382;51.484;11.476;2023-07-31T05:32:32;15.69;88.26
49489;SHT31;35382;51.484;11.476;2023-07-31T05:34:57;15.65;88.84
49489;SHT31;35382;51.484;11.476;2023-07-31T05:37:23;15.61;89.32
49489;SHT31;35382;51.484;11.476;2023-07-31T05:39:49;15.66;88.91
49489;SHT31;35382;51.484;11.476;2023-07-31T05:42:14;15.70;89.16
49489;SHT31;35382;51.484;11.476;2023-07-31T05:44:40;15.63;89.10
49489;SHT31;35382;51.484;11.476;2023-07-31T05:47:05;15.73;88.68
49489;SHT31;35382;51.484;11.476;2023-07-31T05:49:31;15.79;88.81
49489;SHT31;35382;51.484;11.476;2023-07-31T05:51:56;15.82;88.74
49489;SHT31;35382;51.484;11.476;2023-07-31T05:54:22;15.93;87.84
49489;SHT31;35382;51.484;11.476;2023-07-31T05:56:47;16.02;87.20
49489;SHT31;35382;51.484;11.476;2023-07-31T05:59:15;16.02;87.72
49489;SHT31;35382;51.484;11.476;2023-07-31T06:01:40;15.99;87.95
49489;SHT31;35382;51.484;11.476;2023-07-31T06:04:06;15.96;88.01
49489;SHT31;35382;51.484;11.476;2023-07-31T06:06:31;15.96;87.93
49489;SHT31;35382;51.484;11.476;2023-07-31T06:08:56;16.07;87.03
49489;SHT31;35382;51.484;11.476;2023-07-31T06:11:22;16.17;86.32
49489;SHT31;35382;51.484;11.476;2023-07-31T06:13:47;16.30;86.48
49489;SHT31;35382;51.484;11.476;2023-07-31T06:16:13;16.24;85.98
49489;SHT31;35382;51.484;11.476;2023-07-31T06:18:39;16.31;85.55
49489;SHT31;35382;51.484;11.476;2023-07-31T06:21:04;16.43;85.59
49489;SHT31;35382;51.484;11.476;2023-07-31T06:23:30;16.34;85.53
49489;SHT31;35382;51.484;11.476;2023-07-31T06:25:56;16.46;84.72
49489;SHT31;35382;51.484;11.476;2023-07-31T06:28:23;16.49;84.06
49489;SHT31;35382;51.484;11.476;2023-07-31T06:30:52;16.61;84.04
49489;SHT31;35382;51.484;11.476;2023-07-31T06:33:17;16.77;83.79
49489;SHT31;35382;51.484;11.476;2023-07-31T06:35:43;16.83;84.09
49489;SHT31;35382;51.484;11.476;2023-07-31T06:38:08;16.92;82.31
49489;SHT31;35382;51.484;11.476;2023-07-31T06:40:33;17.04;81.56
49489;SHT31;35382;51.484;11.476;2023-07-31T06:42:59;17.28;81.86
49489;SHT31;35382;51.484;11.476;2023-07-31T06:45:24;17.34;81.46
49489;SHT31;35382;51.484;11.476;2023-07-31T06:47:50;17.41;80.48
49489;SHT31;35382;51.484;11.476;2023-07-31T06:50:15;17.43;80.52
49489;SHT31;35382;51.484;11.476;2023-07-31T06:52:40;17.43;80.82
49489;SHT31;35382;51.484;11.476;2023-07-31T06:55:20;17.61;80.48
49489;SHT31;35382;51.484;11.476;2023-07-31T06:57:47;17.56;79.73
49489;SHT31;35382;51.484;11.476;2023-07-31T07:00:12;17.51;79.90
49489;SHT31;35382;51.484;11.476;2023-07-31T07:02:39;17.39;80.15
49489;SHT31;35382;51.484;11.476;2023-07-31T07:05:05;17.28;80.01
49489;SHT31;35382;51.484;11.476;2023-07-31T07:07:31;17.15;80.40
49489;SHT31;35382;51.484;11.476;2023-07-31T07:09:56;17.17;80.15
49489;SHT31;35382;51.484;11.476;2023-07-31T07:12:22;17.25;80.14
49489;SHT31;35382;51.484;11.476;2023-07-31T07:14:47;17.36;79.81
49489;SHT31;35382;51.484;11.476;2023-07-31T07:17:15;17.42;80.12
49489;SHT31;35382;51.484;11.476;2023-07-31T07:19:41;17.53;79.51
49489;SHT31;35382;51.484;11.476;2023-07-31T07:22:09;17.61;79.42
49489;SHT31;35382;51.484;11.476;2023-07-31T07:24:37;17.66;79.42
49489;SHT31;35382;51.484;11.476;2023-07-31T07:27:03;17.75;78.87
49489;SHT31;35382;51.484;11.476;2023-07-31T07:29:29;17.97;78.06
49489;SHT31;35382;51.484;11.476;2023-07-31T07:31:55;18.37;76.99
49489;SHT31;35382;51.484;11.476;2023-07-31T07:34:25;18.57;76.64
49489;SHT31;35382;51.484;11.476;2023-07-31T07:36:51;18.73;75.68
49489;SHT31;35382;51.484;11.476;2023-07-31T07:39:16;18.78;75.00
49489;SHT31;35382;51.484;11.476;2023-07-31T07:41:42;18.75;75.60
49489;SHT31;35382;51.484;11.476;2023-07-31T07:44:08;18.43;75.58
49489;SHT31;35382;51.484;11.476;2023-07-31T07:46:35;18.26;76.09
49489;SHT31;35382;51.484;11.476;2023-07-31T07:49:00;18.25;76.38
49489;SHT31;35382;51.484;11.476;2023-07-31T07:51:26;18.26;76.36
49489;SHT31;35382;51.484;11.476;2023-07-31T07:53:51;18.20;76.19
49489;SHT31;35382;51.484;11.476;2023-07-31T07:56:17;18.20;75.49
49489;SHT31;35382;51.484;11.476;2023-07-31T07:58:42;18.19;75.93
49489;SHT31;35382;51.484;11.476;2023-07-31T08:01:08;18.10;76.31
49489;SHT31;35382;51.484;11.476;2023-07-31T08:03:33;18.06;76.16
49489;SHT31;35382;51.484;11.476;2023-07-31T08:05:59;18.13;76.10
49489;SHT31;35382;51.484;11.476;2023-07-31T08:08:25;18.12;76.20
49489;SHT31;35382;51.484;11.476;2023-07-31T08:10:51;18.17;75.55
49489;SHT31;35382;51.484;11.476;2023-07-31T08:13:16;18.25;75.75
49489;SHT31;35382;51.484;11.476;2023-07-31T08:15:42;18.29;75.96
49489;SHT31;35382;51.484;11.476;2023-07-31T08:18:08;18.33;75.88
49489;SHT31;35382;51.484;11.476;2023-07-31T08:20:34;18.30;75.56
49489;SHT31;35382;51.484;11.476;2023-07-31T08:23:00;18.39;76.39
49489;SHT31;35382;51.484;11.476;2023-07-31T08:25:25;18.27;76.50
49489;SHT31;35382;51.484;11.476;2023-07-31T08:27:50;18.16;76.43
49489;SHT31;35382;51.484;11.476;2023-07-31T08:30:16;17.95;77.00
49489;SHT31;35382;51.484;11.476;2023-07-31T08:32:41;17.81;78.04
49489;SHT31;35382;51.484;11.476;2023-07-31T08:35:07;17.79;78.05
49489;SHT31;35382;51.484;11.476;2023-07-31T08:37:32;17.63;78.57
49489;SHT31;35382;51.484;11.476;2023-07-31T08:39:57;17.61;79.77
49489;SHT31;35382;51.484;11.476;2023-07-31T08:42:23;16.97;83.22
49489;SHT31;35382;51.484;11.476;2023-07-31T08:44:50;16.68;84.82
49489;SHT31;35382;51.484;11.476;2023-07-31T08:47:15;16.63;85.58
49489;SHT31;35382;51.484;11.476;2023-07-31T08:49:43;16.67;84.65
49489;SHT31;35382;51.484;11.476;2023-07-31T08:52:10;16.81;84.45
49489;SHT31;35382;51.484;11.476;2023-07-31T08:54:35;16.83;84.13
49489;SHT31;35382;51.484;11.476;2023-07-31T08:57:01;16.98;82.70
49489;SHT31;35382;51.484;11.476;2023-07-31T08:59:31;17.27;82.62
49489;SHT31;35382;51.484;11.476;2023-07-31T09:02:03;17.34;82.65
49489;SHT31;35382;51.484;11.476;2023-07-31T09:04:30;17.62;81.98
49489;SHT31;35382;51.484;11.476;2023-07-31T09:07:00;17.76;81.09
49489;SHT31;35382;51.484;11.476;2023-07-31T09:09:25;17.96;79.87
49489;SHT31;35382;51.484;11.476;2023-07-31T09:11:51;18.13;80.14
49489;SHT31;35382;51.484;11.476;2023-07-31T09:14:18;18.14;78.69
49489;SHT31;35382;51.484;11.476;2023-07-31T09:16:58;18.29;78.70
49489;SHT31;35382;51.484;11.476;2023-07-31T09:19:29;19.31;77.50
49489;SHT31;35382;51.484;11.476;2023-07-31T09:21:55;20.05;73.64
49489;SHT31;35382;51.484;11.476;2023-07-31T09:24:32;20.57;71.61
49489;SHT31;35382;51.484;11.476;2023-07-31T09:26:59;20.53;71.62
49489;SHT31;35382;51.484;11.476;2023-07-31T09:29:25;20.91;70.05
49489;SHT31;35382;51.484;11.476;2023-07-31T09:31:51;20.62;69.58
49489;SHT31;35382;51.484;11.476;2023-07-31T09:34:16;19.83;70.98
49489;SHT31;35382;51.484;11.476;2023-07-31T09:36:51;19.62;71.65
49489;SHT31;35382;51.484;11.476;2023-07-31T09:39:17;19.57;71.94
49489;SHT31;35382;51.484;11.476;2023-07-31T09:41:45;19.41;71.52
49489;SHT31;35382;51.484;11.476;2023-07-31T09:44:11;19.36;71.69
49489;SHT31;35382;51.484;11.476;2023-07-31T09:46:37;19.44;72.33
49489;SHT31;35382;51.484;11.476;2023-07-31T09:49:07;19.58;71.68
49489;SHT31;35382;51.484;11.476;2023-07-31T09:51:32;19.51;71.62
49489;SHT31;35382;51.484;11.476;2023-07-31T09:53:58;19.54;71.89
49489;SHT31;35382;51.484;11.476;2023-07-31T09:56:25;19.55;71.97
49489;SHT31;35382;51.484;11.476;2023-07-31T09:58:53;20.02;72.16
49489;SHT31;35382;51.484;11.476;2023-07-31T10:01:19;19.97;71.02
49489;SHT31;35382;51.484;11.476;2023-07-31T10:03:45;20.50;69.47
49489;SHT31;35382;51.484;11.476;2023-07-31T10:06:11;20.77;69.23
49489;SHT31;35382;51.484;11.476;2023-07-31T10:08:38;21.64;67.97
49489;SHT31;35382;51.484;11.476;2023-07-31T10:11:05;22.15;66.69
49489;SHT31;35382;51.484;11.476;2023-07-31T10:13:32;21.94;65.37
49489;SHT31;35382;51.484;11.476;2023-07-31T10:15:59;21.37;66.95
49489;SHT31;35382;51.484;11.476;2023-07-31T10:18:26;21.08;68.02
49489;SHT31;35382;51.484;11.476;2023-07-31T10:20:53;20.88;68.03
49489;SHT31;35382;51.484;11.476;2023-07-31T10:23:18;20.88;68.79
49489;SHT31;35382;51.484;11.476;2023-07-31T10:25:44;20.79;68.73
49489;SHT31;35382;51.484;11.476;2023-07-31T10:28:11;20.49;68.24
49489;SHT31;35382;51.484;11.476;2023-07-31T10:30:37;20.26;69.00
49489;SHT31;35382;51.484;11.476;2023-07-31T10:33:03;20.18;69.06
49489;SHT31;35382;51.484;11.476;2023-07-31T10:35:29;20.43;68.68
49489;SHT31;35382;51.484;11.476;2023-07-31T10:37:55;20.33;69.00
49489;SHT31;35382;51.484;11.476;2023-07-31T10:40:27;19.93;69.94
49489;SHT31;35382;51.484;11.476;2023-07-31T10:42:55;19.73;70.15
49489;SHT31;35382;51.484;11.476;2023-07-31T10:47:49;19.61;69.65
49489;SHT31;35382;51.484;11.476;2023-07-31T10:50:20;19.58;70.24
49489;SHT31;35382;51.484;11.476;2023-07-31T10:52:47;19.68;70.13
49489;SHT31;35382;51.484;11.476;2023-07-31T10:57:57;20.05;68.59
49489;SHT31;35382;51.484;11.476;2023-07-31T11:00:28;20.33;68.71
49489;SHT31;35382;51.484;11.476;2023-07-31T11:03:07;20.36;68.38
49489;SHT31;35382;51.484;11.476;2023-07-31T11:06:03;20.33;68.60
49489;SHT31;35382;51.484;11.476;2023-07-31T11:08:41;20.18;68.12
49489;SHT31;35382;51.484;11.476;2023-07-31T11:11:13;20.29;68.92
49489;SHT31;35382;51.484;11.476;2023-07-31T11:13:47;20.36;67.58
49489;SHT31;35382;51.484;11.476;2023-07-31T11:16:13;20.30;67.69
49489;SHT31;35382;51.484;11.476;2023-07-31T11:18:44;20.39;67.59
49489;SHT31;35382;51.484;11.476;2023-07-31T11:23:39;20.54;67.52
49489;SHT31;35382;51.484;11.476;2023-07-31T11:26:06;20.74;66.37
49489;SHT31;35382;51.484;11.476;2023-07-31T11:28:33;21.23;64.79
49489;SHT31;35382;51.484;11.476;2023-07-31T11:30:58;21.35;64.63
49489;SHT31;35382;51.484;11.476;2023-07-31T11:33:24;21.92;64.14
49489;SHT31;35382;51.484;11.476;2023-07-31T11:35:49;21.54;64.29
49489;SHT31;35382;51.484;11.476;2023-07-31T11:38:22;21.69;65.16
49489;SHT31;35382;51.484;11.476;2023-07-31T11:40:48;21.31;65.00
49489;SHT31;35382;51.484;11.476;2023-07-31T11:43:13;21.26;65.00
49489;SHT31;35382;51.484;11.476;2023-07-31T11:45:39;21.31;65.10
49489;SHT31;35382;51.484;11.476;2023-07-31T11:48:05;21.27;66.00
49489;SHT31;35382;51.484;11.476;2023-07-31T11:50:33;21.15;65.35
49489;SHT31;35382;51.484;11.476;2023-07-31T11:53:00;21.07;65.69
49489;SHT31;35382;51.484;11.476;2023-07-31T11:55:26;21.30;66.36
49489;SHT31;35382;51.484;11.476;2023-07-31T11:57:53;22.08;63.77
49489;SHT31;35382;51.484;11.476;2023-07-31T12:00:19;22.18;63.53
49489;SHT31;35382;51.484;11.476;2023-07-31T12:02:45;22.25;63.34
49489;SHT31;35382;51.484;11.476;2023-07-31T12:05:12;22.09;62.99
49489;SHT31;35382;51.484;11.476;2023-07-31T12:07:51;21.79;63.30
49489;SHT31;35382;51.484;11.476;2023-07-31T12:10:31;21.45;64.16
49489;SHT31;35382;51.484;11.476;2023-07-31T12:15:38;21.38;65.33
49489;SHT31;35382;51.484;11.476;2023-07-31T12:18:04;21.59;65.10
49489;SHT31;35382;51.484;11.476;2023-07-31T12:20:30;21.95;64.52
49489;SHT31;35382;51.484;11.476;2023-07-31T12:22:56;21.75;64.30
49489;SHT31;35382;51.484;11.476;2023-07-31T12:25:21;21.71;64.30
49489;SHT31;35382;51.484;11.476;2023-07-31T12:27:47;22.01;64.58
49489;SHT31;35382;51.484;11.476;2023-07-31T12:30:32;21.86;64.45
49489;SHT31;35382;51.484;11.476;2023-07-31T12:32:57;21.71;65.12
49489;SHT31;35382;51.484;11.476;2023-07-31T12:35:34;21.89;64.16
49489;SHT31;35382;51.484;11.476;2023-07-31T12:38:03;22.48;62.39
49489;SHT31;35382;51.484;11.476;2023-07-31T12:40:28;22.02;62.23
49489;SHT31;35382;51.484;11.476;2023-07-31T12:42:54;21.69;63.52
49489;SHT31;35382;51.484;11.476;2023-07-31T12:45:19;21.81;62.86
49489;SHT31;35382;51.484;11.476;2023-07-31T12:47:44;21.42;63.81
49489;SHT31;35382;51.484;11.476;2023-07-31T12:50:10;21.26;64.64
49489;SHT31;35382;51.484;11.476;2023-07-31T12:52:35;21.35;64.79
49489;SHT31;35382;51.484;11.476;2023-07-31T12:55:00;21.23;65.57
49489;SHT31;35382;51.484;11.476;2023-07-31T12:57:26;21.20;64.82
49489;SHT31;35382;51.484;11.476;2023-07-31T12:59:56;21.57;64.46
49489;SHT31;35382;51.484;11.476;2023-07-31T13:02:22;21.61;64.37
49489;SHT31;35382;51.484;11.476;2023-07-31T13:04:49;21.45;64.37
49489;SHT31;35382;51.484;11.476;2023-07-31T13:07:15;21.24;64.00
49489;SHT31;35382;51.484;11.476;2023-07-31T13:09:40;21.20;64.18
49489;SHT31;35382;51.484;11.476;2023-07-31T13:12:06;21.18;64.66
49489;SHT31;35382;51.484;11.476;2023-07-31T13:14:31;21.54;64.66
49489;SHT31;35382;51.484;11.476;2023-07-31T13:16:57;21.74;62.39
49489;SHT31;35382;51.484;11.476;2023-07-31T13:19:22;21.98;62.67
49489;SHT31;35382;51.484;11.476;2023-07-31T13:21:47;21.78;63.02
49489;SHT31;35382;51.484;11.476;2023-07-31T13:24:13;21.50;63.42
49489;SHT31;35382;51.484;11.476;2023-07-31T13:26:38;21.17;63.95
49489;SHT31;35382;51.484;11.476;2023-07-31T13:29:04;20.91;64.62
49489;SHT31;35382;51.484;11.476;2023-07-31T13:31:29;20.79;65.38
49489;SHT31;35382;51.484;11.476;2023-07-31T13:33:54;20.64;65.37
49489;SHT31;35382;51.484;11.476;2023-07-31T13:36:20;20.72;65.32
49489;SHT31;35382;51.484;11.476;2023-07-31T13:38:46;20.77;65.61
49489;SHT31;35382;51.484;11.476;2023-07-31T13:41:12;20.77;65.32
49489;SHT31;35382;51.484;11.476;2023-07-31T13:43:37;20.83;64.57
49489;SHT31;35382;51.484;11.476;2023-07-31T13:46:03;20.84;64.58
49489;SHT31;35382;51.484;11.476;2023-07-31T13:48:29;20.80;65.11
49489;SHT31;35382;51.484;11.476;2023-07-31T13:50:54;20.69;64.68
49489;SHT31;35382;51.484;11.476;2023-07-31T13:53:19;20.62;65.32
49489;SHT31;35382;51.484;11.476;2023-07-31T13:55:45;20.46;65.75
49489;SHT31;35382;51.484;11.476;2023-07-31T13:58:10;20.28;66.82
49489;SHT31;35382;51.484;11.476;2023-07-31T14:00:36;20.15;66.68
49489;SHT31;35382;51.484;11.476;2023-07-31T14:03:01;20.12;67.04
49489;SHT31;35382;51.484;11.476;2023-07-31T14:05:27;20.16;67.22
49489;SHT31;35382;51.484;11.476;2023-07-31T14:07:52;20.19;67.05
49489;SHT31;35382;51.484;11.476;2023-07-31T14:10:17;20.20;66.97
49489;SHT31;35382;51.484;11.476;2023-07-31T14:12:43;20.32;66.72
49489;SHT31;35382;51.484;11.476;2023-07-31T14:15:09;20.20;66.84
49489;SHT31;35382;51.484;11.476;2023-07-31T14:17:34;20.28;66.62
49489;SHT31;35382;51.484;11.476;2023-07-31T14:20:00;20.20;66.97
49489;SHT31;35382;51.484;11.476;2023-07-31T14:22:30;20.19;67.06
49489;SHT31;35382;51.484;11.476;2023-07-31T14:24:56;20.16;67.59
49489;SHT31;35382;51.484;11.476;2023-07-31T14:27:22;20.18;67.37
49489;SHT31;35382;51.484;11.476;2023-07-31T14:29:47;20.26;67.55
49489;SHT31;35382;51.484;11.476;2023-07-31T14:32:12;20.29;67.51
49489;SHT31;35382;51.484;11.476;2023-07-31T14:34:38;20.33;67.56
49489;SHT31;35382;51.484;11.476;2023-07-31T14:37:03;20.33;67.18
49489;SHT31;35382;51.484;11.476;2023-07-31T14:39:29;20.28;67.17
49489;SHT31;35382;51.484;11.476;2023-07-31T14:41:54;20.09;68.66
49489;SHT31;35382;51.484;11.476;2023-07-31T14:44:20;20.00;68.30
49489;SHT31;35382;51.484;11.476;2023-07-31T14:46:45;20.10;68.54
49489;SHT31;35382;51.484;11.476;2023-07-31T14:49:14;20.20;68.35
49489;SHT31;35382;51.484;11.476;2023-07-31T14:51:39;20.18;69.89
49489;SHT31;35382;51.484;11.476;2023-07-31T14:54:05;20.19;71.10
49489;SHT31;35382;51.484;11.476;2023-07-31T14:56:30;20.15;71.77
49489;SHT31;35382;51.484;11.476;2023-07-31T14:58:57;20.18;70.55
49489;SHT31;35382;51.484;11.476;2023-07-31T15:01:23;20.32;70.08
49489;SHT31;35382;51.484;11.476;2023-07-31T15:03:48;20.29;70.16
49489;SHT31;35382;51.484;11.476;2023-07-31T15:06:14;20.36;70.37
49489;SHT31;35382;51.484;11.476;2023-07-31T15:08:39;20.39;70.40
49489;SHT31;35382;51.484;11.476;2023-07-31T15:11:05;20.41;70.56
49489;SHT31;35382;51.484;11.476;2023-07-31T15:13:30;20.43;69.72
49489;SHT31;35382;51.484;11.476;2023-07-31T15:15:55;20.44;70.30
49489;SHT31;35382;51.484;11.476;2023-07-31T15:18:21;20.44;70.48
49489;SHT31;35382;51.484;11.476;2023-07-31T15:20:47;20.43;68.66
49489;SHT31;35382;51.484;11.476;2023-07-31T15:23:13;20.43;69.30
49489;SHT31;35382;51.484;11.476;2023-07-31T15:25:38;20.56;68.31
49489;SHT31;35382;51.484;11.476;2023-07-31T15:28:04;20.59;67.71
49489;SHT31;35382;51.484;11.476;2023-07-31T15:30:29;20.56;68.18